sensor_id;sensor_type;location;lat;lon;timestamp;temperature;humidity
68924;DHT22;55961;52.156;20.942;2024-03-22T00:01:45;8.80;99.60
68924;DHT22;55961;52.156;20.942;2024-03-22T00:04:12;8.80;99.30
68924;DHT22;55961;52.156;20.942;2024-03-22T00:06:39;8.80;99.90
68924;DHT22;55961;52.156;20.942;2024-03-22T00:09:05;8.80;99.90
68924;DHT22;55961;52.156;20.942;2024-03-22T00:11:31;8.80;99.90
68924;DHT22;55961;52.156;20.942;2024-03-22T00:13:57;8.80;99.90
68924;DHT22;55961;52.156;20.942;2024-03-22T00:16:23;8.80;99.90
68924;DHT22;55961;52.156;20.942;2024-03-22T00:18:50;8.90;99.90
68924;DHT22;55961;52.156;20.942;2024-03-22T00:21:15;8.80;99.90
68924;DHT22;55961;52.156;20.942;2024-03-22T00:23:43;8.90;99.90
68924;DHT22;55961;52.156;20.942;2024-03-22T00:26:09;8.90;99.90
68924;DHT22;55961;52.156;20.942;2024-03-22T00:28:35;8.90;99.90
68924;DHT22;55961;52.156;20.942;2024-03-22T00:31:01;8.90;99.90
68924;DHT22;55961;52.156;20.942;2024-03-22T00:33:27;8.90;99.90
68924;DHT22;55961;52.156;20.942;2024-03-22T00:35:53;8.90;99.90
68924;DHT22;55961;52.156;20.942;2024-03-22T00:38:19;8.90;99.90
68924;DHT22;55961;52.156;20.942;2024-03-22T00:40:45;8.90;99.90
68924;DHT22;55961;52.156;20.942;2024-03-22T00:43:11;8.90;99.90
68924;DHT22;55961;52.156;20.942;2024-03-22T00:45:37;8.90;99.90
68924;DHT22;55961;52.156;20.942;2024-03-22T00:48:03;8.90;99.90
68924;DHT22;55961;52.156;20.942;2024-03-22T00:50:29;8.90;99.90
68924;DHT22;55961;52.156;20.942;2024-03-22T00:52:55;8.90;99.90
68924;DHT22;55961;52.156;20.942;2024-03-22T00:55:24;8.90;99.90
68924;DHT22;55961;52.156;20.942;2024-03-22T00:57:51;8.90;99.90
68924;DHT22;55961;52.156;20.942;2024-03-22T01:00:17;8.90;99.90
68924;DHT22;55961;52.156;20.942;2024-03-22T01:02:43;8.90;99.90
68924;DHT22;55961;52.156;20.942;2024-03-22T01:05:10;8.90;99.90
68924;DHT22;55961;52.156;20.942;2024-03-22T01:07:37;8.90;99.90
68924;DHT22;55961;52.156;20.942;2024-03-22T01:10:06;8.90;99.90
68924;DHT22;55961;52.156;20.942;2024-03-22T01:12:32;8.90;99.90
68924;DHT22;55961;52.156;20.942;2024-03-22T01:14:58;8.90;99.90
68924;DHT22;55961;52.156;20.942;2024-03-22T01:17:24;9.00;99.90
68924;DHT22;55961;52.156;20.942;2024-03-22T01:19:50;9.00;99.90
68924;DHT22;55961;52.156;20.942;2024-03-22T01:22:17;9.00;99.90
68924;DHT22;55961;52.156;20.942;2024-03-22T01:24:44;9.00;99.90
68924;DHT22;55961;52.156;20.942;2024-03-22T01:27:10;9.00;99.90
68924;DHT22;55961;52.156;20.942;2024-03-22T01:29:36;9.00;99.90
68924;DHT22;55961;52.156;20.942;2024-03-22T01:32:02;9.00;99.90
68924;DHT22;55961;52.156;20.942;2024-03-22T01:34:28;9.00;99.90
68924;DHT22;55961;52.156;20.942;2024-03-22T01:36:54;9.00;99.90
68924;DHT22;55961;52.156;20.942;2024-03-22T01:39:21;9.00;99.90
68924;DHT22;55961;52.156;20.942;2024-03-22T01:41:48;9.00;99.90
68924;DHT22;55961;52.156;20.942;2024-03-22T01:44:14;9.00;99.90
68924;DHT22;55961;52.156;20.942;2024-03-22T01:46:40;9.10;99.90
68924;DHT22;55961;52.156;20.942;2024-03-22T01:49:10;9.00;99.90
68924;DHT22;55961;52.156;20.942;2024-03-22T01:51:39;9.10;99.90
68924;DHT22;55961;52.156;20.942;2024-03-22T01:54:09;9.10;99.90
68924;DHT22;55961;52.156;20.942;2024-03-22T01:56:38;9.10;99.90
68924;DHT22;55961;52.156;20.942;2024-03-22T01:59:07;9.10;99.90
68924;DHT22;55961;52.156;20.942;2024-03-22T02:01:33;9.10;99.90
68924;DHT22;55961;52.156;20.942;2024-03-22T02:04:00;9.10;99.90
68924;DHT22;55961;52.156;20.942;2024-03-22T02:06:27;9.10;99.90
68924;DHT22;55961;52.156;20.942;2024-03-22T02:08:54;9.10;99.90
68924;DHT22;55961;52.156;20.942;2024-03-22T02:11:20;9.10;99.90
68924;DHT22;55961;52.156;20.942;2024-03-22T02:13:46;9.10;99.90
68924;DHT22;55961;52.156;20.942;2024-03-22T02:16:12;9.10;99.90
68924;DHT22;55961;52.156;20.942;2024-03-22T02:18:38;9.20;99.90
68924;DHT22;55961;52.156;20.942;2024-03-22T02:21:04;9.10;99.90
68924;DHT22;55961;52.156;20.942;2024-03-22T02:23:37;9.10;99.90
68924;DHT22;55961;52.156;20.942;2024-03-22T02:26:05;9.20;99.90
68924;DHT22;55961;52.156;20.942;2024-03-22T02:28:31;9.20;99.90
68924;DHT22;55961;52.156;20.942;2024-03-22T02:30:58;9.20;99.90
68924;DHT22;55961;52.156;20.942;2024-03-22T02:33:25;9.20;99.90
68924;DHT22;55961;52.156;20.942;2024-03-22T02:35:51;9.20;99.90
68924;DHT22;55961;52.156;20.942;2024-03-22T02:38:17;9.20;99.90
68924;DHT22;55961;52.156;20.942;2024-03-22T02:40:45;9.20;99.90
68924;DHT22;55961;52.156;20.942;2024-03-22T02:43:11;9.20;99.90
68924;DHT22;55961;52.156;20.942;2024-03-22T02:45:37;9.20;99.90
68924;DHT22;55961;52.156;20.942;2024-03-22T02:48:03;9.30;99.90
68924;DHT22;55961;52.156;20.942;2024-03-22T02:50:33;9.20;99.90
68924;DHT22;55961;52.156;20.942;2024-03-22T02:52:59;9.30;99.90
68924;DHT22;55961;52.156;20.942;2024-03-22T02:55:25;9.30;99.90
68924;DHT22;55961;52.156;20.942;2024-03-22T02:57:51;9.30;99.90
68924;DHT22;55961;52.156;20.942;2024-03-22T03:00:18;9.30;99.90
68924;DHT22;55961;52.156;20.942;2024-03-22T03:02:44;9.30;99.90
68924;DHT22;55961;52.156;20.942;2024-03-22T03:05:10;9.30;99.90
68924;DHT22;55961;52.156;20.942;2024-03-22T03:07:36;9.30;99.90
68924;DHT22;55961;52.156;20.942;2024-03-22T03:10:02;9.30;99.90
68924;DHT22;55961;52.156;20.942;2024-03-22T03:12:28;9.30;99.90
68924;DHT22;55961;52.156;20.942;2024-03-22T03:14:54;9.30;99.90
68924;DHT22;55961;52.156;20.942;2024-03-22T03:17:20;9.30;99.90
68924;DHT22;55961;52.156;20.942;2024-03-22T03:19:46;9.30;99.90
68924;DHT22;55961;52.156;20.942;2024-03-22T03:22:12;9.30;99.90
68924;DHT22;55961;52.156;20.942;2024-03-22T03:24:38;9.30;99.90
68924;DHT22;55961;52.156;20.942;2024-03-22T03:27:04;9.30;99.90
68924;DHT22;55961;52.156;20.942;2024-03-22T03:29:30;9.30;99.90
68924;DHT22;55961;52.156;20.942;2024-03-22T03:31:56;9.30;99.90
68924;DHT22;55961;52.156;20.942;2024-03-22T03:34:22;9.30;99.90
68924;DHT22;55961;52.156;20.942;2024-03-22T03:36:48;9.30;99.90
68924;DHT22;55961;52.156;20.942;2024-03-22T03:39:14;9.30;99.90
68924;DHT22;55961;52.156;20.942;2024-03-22T03:41:40;9.30;99.90
68924;DHT22;55961;52.156;20.942;2024-03-22T03:44:06;9.30;99.90
68924;DHT22;55961;52.156;20.942;2024-03-22T03:46:31;9.30;99.90
68924;DHT22;55961;52.156;20.942;2024-03-22T03:48:58;9.30;99.90
68924;DHT22;55961;52.156;20.942;2024-03-22T03:51:23;9.30;99.90
68924;DHT22;55961;52.156;20.942;2024-03-22T03:53:49;9.30;99.90
68924;DHT22;55961;52.156;20.942;2024-03-22T03:56:15;9.30;99.90
68924;DHT22;55961;52.156;20.942;2024-03-22T03:58:41;9.30;99.90
68924;DHT22;55961;52.156;20.942;2024-03-22T04:01:08;9.20;99.90
68924;DHT22;55961;52.156;20.942;2024-03-22T04:03:35;9.20;99.90
68924;DHT22;55961;52.156;20.942;2024-03-22T04:06:01;9.20;99.90
68924;DHT22;55961;52.156;20.942;2024-03-22T04:08:27;9.10;99.90
68924;DHT22;55961;52.156;20.942;2024-03-22T04:10:54;9.10;99.90
68924;DHT22;55961;52.156;20.942;2024-03-22T04:13:47;9.10;99.90
68924;DHT22;55961;52.156;20.942;2024-03-22T04:16:13;9.00;99.90
68924;DHT22;55961;52.156;20.942;2024-03-22T04:18:39;9.00;99.90
68924;DHT22;55961;52.156;20.942;2024-03-22T04:21:05;9.00;99.90
68924;DHT22;55961;52.156;20.942;2024-03-22T04:23:31;9.00;99.90
68924;DHT22;55961;52.156;20.942;2024-03-22T04:25:59;8.90;99.90
68924;DHT22;55961;52.156;20.942;2024-03-22T04:28:26;8.90;99.90
68924;DHT22;55961;52.156;20.942;2024-03-22T04:31:06;8.90;99.90
68924;DHT22;55961;52.156;20.942;2024-03-22T04:33:32;8.80;99.90
68924;DHT22;55961;52.156;20.942;2024-03-22T04:35:59;8.80;99.90
68924;DHT22;55961;52.156;20.942;2024-03-22T04:38:27;8.70;99.90
68924;DHT22;55961;52.156;20.942;2024-03-22T04:40:53;8.70;99.90
68924;DHT22;55961;52.156;20.942;2024-03-22T04:43:21;8.60;99.90
68924;DHT22;55961;52.156;20.942;2024-03-22T04:45:47;8.60;99.90
68924;DHT22;55961;52.156;20.942;2024-03-22T04:48:18;8.60;99.90
68924;DHT22;55961;52.156;20.942;2024-03-22T04:50:45;8.60;99.90
68924;DHT22;55961;52.156;20.942;2024-03-22T04:53:12;8.50;99.90
68924;DHT22;55961;52.156;20.942;2024-03-22T04:55:38;8.50;99.90
68924;DHT22;55961;52.156;20.942;2024-03-22T04:58:04;8.50;99.90
68924;DHT22;55961;52.156;20.942;2024-03-22T05:00:29;8.50;99.90
68924;DHT22;55961;52.156;20.942;2024-03-22T05:02:55;8.50;99.90
68924;DHT22;55961;52.156;20.942;2024-03-22T05:05:21;8.40;99.90
68924;DHT22;55961;52.156;20.942;2024-03-22T05:07:47;8.40;99.90
68924;DHT22;55961;52.156;20.942;2024-03-22T05:10:13;8.40;99.90
68924;DHT22;55961;52.156;20.942;2024-03-22T05:12:39;8.40;99.90
68924;DHT22;55961;52.156;20.942;2024-03-22T05:15:06;8.40;99.90
68924;DHT22;55961;52.156;20.942;2024-03-22T05:17:33;8.30;99.90
68924;DHT22;55961;52.156;20.942;2024-03-22T05:19:59;8.30;99.90
68924;DHT22;55961;52.156;20.942;2024-03-22T05:22:25;8.30;99.90
68924;DHT22;55961;52.156;20.942;2024-03-22T05:24:51;8.30;99.90
68924;DHT22;55961;52.156;20.942;2024-03-22T05:27:18;8.30;99.90
68924;DHT22;55961;52.156;20.942;2024-03-22T05:29:44;8.30;99.90
68924;DHT22;55961;52.156;20.942;2024-03-22T05:32:10;8.30;99.90
68924;DHT22;55961;52.156;20.942;2024-03-22T05:34:36;8.30;99.90
68924;DHT22;55961;52.156;20.942;2024-03-22T05:37:02;8.30;99.90
68924;DHT22;55961;52.156;20.942;2024-03-22T05:39:28;8.30;99.90
68924;DHT22;55961;52.156;20.942;2024-03-22T05:41:55;8.30;99.90
68924;DHT22;55961;52.156;20.942;2024-03-22T05:44:23;8.30;99.90
68924;DHT22;55961;52.156;20.942;2024-03-22T05:46:49;8.30;99.90
68924;DHT22;55961;52.156;20.942;2024-03-22T05:49:16;8.40;99.90
68924;DHT22;55961;52.156;20.942;2024-03-22T05:51:42;8.40;99.90
68924;DHT22;55961;52.156;20.942;2024-03-22T05:54:08;8.40;99.90
68924;DHT22;55961;52.156;20.942;2024-03-22T05:56:34;8.30;99.90
68924;DHT22;55961;52.156;20.942;2024-03-22T05:59:00;8.40;99.90
68924;DHT22;55961;52.156;20.942;2024-03-22T06:01:26;8.30;99.90
68924;DHT22;55961;52.156;20.942;2024-03-22T06:03:52;8.40;99.80
68924;DHT22;55961;52.156;20.942;2024-03-22T06:06:18;8.40;99.70
68924;DHT22;55961;52.156;20.942;2024-03-22T06:08:44;8.40;99.70
68924;DHT22;55961;52.156;20.942;2024-03-22T06:11:11;8.30;99.60
68924;DHT22;55961;52.156;20.942;2024-03-22T06:13:37;8.30;99.60
68924;DHT22;55961;52.156;20.942;2024-03-22T06:16:04;8.30;99.40
68924;DHT22;55961;52.156;20.942;2024-03-22T06:18:30;8.30;99.40
68924;DHT22;55961;52.156;20.942;2024-03-22T06:20:56;8.30;99.40
68924;DHT22;55961;52.156;20.942;2024-03-22T06:23:22;8.30;99.80
68924;DHT22;55961;52.156;20.942;2024-03-22T06:25:52;8.40;99.90
68924;DHT22;55961;52.156;20.942;2024-03-22T06:28:18;8.30;99.90
68924;DHT22;55961;52.156;20.942;2024-03-22T06:30:44;8.30;99.90
68924;DHT22;55961;52.156;20.942;2024-03-22T06:33:10;8.30;99.90
68924;DHT22;55961;52.156;20.942;2024-03-22T06:35:36;8.30;99.90
68924;DHT22;55961;52.156;20.942;2024-03-22T06:38:02;8.30;99.90
68924;DHT22;55961;52.156;20.942;2024-03-22T06:40:29;8.30;99.90
68924;DHT22;55961;52.156;20.942;2024-03-22T06:42:55;8.30;99.90
68924;DHT22;55961;52.156;20.942;2024-03-22T06:45:21;8.30;99.90
68924;DHT22;55961;52.156;20.942;2024-03-22T06:47:47;8.30;99.90
68924;DHT22;55961;52.156;20.942;2024-03-22T06:50:13;8.30;99.90
68924;DHT22;55961;52.156;20.942;2024-03-22T06:52:39;8.40;99.90
68924;DHT22;55961;52.156;20.942;2024-03-22T06:55:05;8.40;99.90
68924;DHT22;55961;52.156;20.942;2024-03-22T06:57:32;8.40;99.80
68924;DHT22;55961;52.156;20.942;2024-03-22T07:00:00;8.30;99.50
68924;DHT22;55961;52.156;20.942;2024-03-22T07:02:26;8.30;98.80
68924;DHT22;55961;52.156;20.942;2024-03-22T07:04:52;8.30;98.90
68924;DHT22;55961;52.156;20.942;2024-03-22T07:07:18;8.30;99.20
68924;DHT22;55961;52.156;20.942;2024-03-22T07:09:44;8.30;99.70
68924;DHT22;55961;52.156;20.942;2024-03-22T07:12:11;8.30;99.70
68924;DHT22;55961;52.156;20.942;2024-03-22T07:14:37;8.30;99.80
68924;DHT22;55961;52.156;20.942;2024-03-22T07:17:03;8.30;99.60
68924;DHT22;55961;52.156;20.942;2024-03-22T07:19:31;8.30;98.90
68924;DHT22;55961;52.156;20.942;2024-03-22T07:21:58;8.30;98.80
68924;DHT22;55961;52.156;20.942;2024-03-22T07:24:25;8.30;98.90
68924;DHT22;55961;52.156;20.942;2024-03-22T07:26:51;8.20;99.20
68924;DHT22;55961;52.156;20.942;2024-03-22T07:29:17;8.20;98.80
68924;DHT22;55961;52.156;20.942;2024-03-22T07:31:43;8.20;98.80
68924;DHT22;55961;52.156;20.942;2024-03-22T07:34:09;8.20;98.70
68924;DHT22;55961;52.156;20.942;2024-03-22T07:36:39;8.10;98.60
68924;DHT22;55961;52.156;20.942;2024-03-22T07:39:05;8.10;98.60
68924;DHT22;55961;52.156;20.942;2024-03-22T07:41:34;8.10;98.60
68924;DHT22;55961;52.156;20.942;2024-03-22T07:44:01;8.10;98.60
68924;DHT22;55961;52.156;20.942;2024-03-22T07:46:26;8.10;98.60
68924;DHT22;55961;52.156;20.942;2024-03-22T07:48:53;8.10;98.80
68924;DHT22;55961;52.156;20.942;2024-03-22T07:51:20;8.20;99.10
68924;DHT22;55961;52.156;20.942;2024-03-22T07:53:46;8.20;98.90
68924;DHT22;55961;52.156;20.942;2024-03-22T07:56:12;8.20;98.30
68924;DHT22;55961;52.156;20.942;2024-03-22T07:58:38;8.20;98.00
68924;DHT22;55961;52.156;20.942;2024-03-22T08:01:04;8.20;97.80
68924;DHT22;55961;52.156;20.942;2024-03-22T08:03:31;8.20;97.60
68924;DHT22;55961;52.156;20.942;2024-03-22T08:05:57;8.30;97.60
68924;DHT22;55961;52.156;20.942;2024-03-22T08:08:23;8.30;97.60
68924;DHT22;55961;52.156;20.942;2024-03-22T08:10:49;8.30;97.50
68924;DHT22;55961;52.156;20.942;2024-03-22T08:13:15;8.40;97.20
68924;DHT22;55961;52.156;20.942;2024-03-22T08:15:41;8.40;96.80
68924;DHT22;55961;52.156;20.942;2024-03-22T08:18:09;8.40;96.50
68924;DHT22;55961;52.156;20.942;2024-03-22T08:20:35;8.40;96.70
68924;DHT22;55961;52.156;20.942;2024-03-22T08:23:03;8.40;96.70
68924;DHT22;55961;52.156;20.942;2024-03-22T08:25:29;8.50;96.10
68924;DHT22;55961;52.156;20.942;2024-03-22T08:27:55;8.50;95.60
68924;DHT22;55961;52.156;20.942;2024-03-22T08:30:22;8.50;95.40
68924;DHT22;55961;52.156;20.942;2024-03-22T08:32:48;8.50;95.20
68924;DHT22;55961;52.156;20.942;2024-03-22T08:35:14;8.60;95.10
68924;DHT22;55961;52.156;20.942;2024-03-22T08:37:40;8.60;95.30
68924;DHT22;55961;52.156;20.942;2024-03-22T08:40:06;8.60;95.90
68924;DHT22;55961;52.156;20.942;2024-03-22T08:42:33;8.70;95.60
68924;DHT22;55961;52.156;20.942;2024-03-22T08:44:59;8.70;95.10
68924;DHT22;55961;52.156;20.942;2024-03-22T08:47:25;8.70;95.10
68924;DHT22;55961;52.156;20.942;2024-03-22T08:49:51;8.80;94.30
68924;DHT22;55961;52.156;20.942;2024-03-22T08:52:17;8.80;94.40
68924;DHT22;55961;52.156;20.942;2024-03-22T08:54:43;8.80;94.00
68924;DHT22;55961;52.156;20.942;2024-03-22T08:57:09;8.80;94.00
68924;DHT22;55961;52.156;20.942;2024-03-22T08:59:35;8.80;94.40
68924;DHT22;55961;52.156;20.942;2024-03-22T09:02:01;8.90;94.50
68924;DHT22;55961;52.156;20.942;2024-03-22T09:04:27;8.90;94.50
68924;DHT22;55961;52.156;20.942;2024-03-22T09:06:53;8.90;94.50
68924;DHT22;55961;52.156;20.942;2024-03-22T09:09:19;8.90;94.10
68924;DHT22;55961;52.156;20.942;2024-03-22T09:11:45;9.00;93.30
68924;DHT22;55961;52.156;20.942;2024-03-22T09:14:11;9.00;93.50
68924;DHT22;55961;52.156;20.942;2024-03-22T09:16:37;9.00;93.30
68924;DHT22;55961;52.156;20.942;2024-03-22T09:19:03;9.00;93.60
68924;DHT22;55961;52.156;20.942;2024-03-22T09:21:29;9.00;93.70
68924;DHT22;55961;52.156;20.942;2024-03-22T09:23:57;9.00;94.10
68924;DHT22;55961;52.156;20.942;2024-03-22T09:26:23;9.00;94.00
68924;DHT22;55961;52.156;20.942;2024-03-22T09:28:49;9.00;94.40
68924;DHT22;55961;52.156;20.942;2024-03-22T09:31:16;9.00;94.80
68924;DHT22;55961;52.156;20.942;2024-03-22T09:33:42;9.00;94.80
68924;DHT22;55961;52.156;20.942;2024-03-22T09:36:09;9.10;94.70
68924;DHT22;55961;52.156;20.942;2024-03-22T09:38:35;9.10;94.50
68924;DHT22;55961;52.156;20.942;2024-03-22T09:41:01;9.10;94.10
68924;DHT22;55961;52.156;20.942;2024-03-22T09:43:27;9.10;94.20
68924;DHT22;55961;52.156;20.942;2024-03-22T09:45:55;9.10;94.00
68924;DHT22;55961;52.156;20.942;2024-03-22T09:48:22;9.10;93.70
68924;DHT22;55961;52.156;20.942;2024-03-22T09:50:49;9.10;93.30
68924;DHT22;55961;52.156;20.942;2024-03-22T09:53:19;9.00;93.90
68924;DHT22;55961;52.156;20.942;2024-03-22T09:55:47;9.00;94.20
68924;DHT22;55961;52.156;20.942;2024-03-22T09:58:14;9.00;94.60
68924;DHT22;55961;52.156;20.942;2024-03-22T10:00:40;9.00;94.90
68924;DHT22;55961;52.156;20.942;2024-03-22T10:03:08;9.00;95.40
68924;DHT22;55961;52.156;20.942;2024-03-22T10:05:35;9.00;96.10
68924;DHT22;55961;52.156;20.942;2024-03-22T10:08:03;9.00;96.00
68924;DHT22;55961;52.156;20.942;2024-03-22T10:10:35;9.00;96.00
68924;DHT22;55961;52.156;20.942;2024-03-22T10:13:02;9.00;95.70
68924;DHT22;55961;52.156;20.942;2024-03-22T10:15:29;9.00;94.90
68924;DHT22;55961;52.156;20.942;2024-03-22T10:17:57;9.00;95.30
68924;DHT22;55961;52.156;20.942;2024-03-22T10:20:23;9.00;95.20
68924;DHT22;55961;52.156;20.942;2024-03-22T10:22:55;9.00;95.30
68924;DHT22;55961;52.156;20.942;2024-03-22T10:25:22;9.00;95.60
68924;DHT22;55961;52.156;20.942;2024-03-22T10:27:49;9.10;95.70
68924;DHT22;55961;52.156;20.942;2024-03-22T10:30:16;9.10;95.50
68924;DHT22;55961;52.156;20.942;2024-03-22T10:32:42;9.10;95.60
68924;DHT22;55961;52.156;20.942;2024-03-22T10:35:11;9.10;95.30
68924;DHT22;55961;52.156;20.942;2024-03-22T10:37:39;9.10;95.30
68924;DHT22;55961;52.156;20.942;2024-03-22T10:40:05;9.20;95.40
68924;DHT22;55961;52.156;20.942;2024-03-22T10:42:39;9.20;95.00
68924;DHT22;55961;52.156;20.942;2024-03-22T10:45:10;9.20;94.50
68924;DHT22;55961;52.156;20.942;2024-03-22T10:47:37;9.20;94.90
68924;DHT22;55961;52.156;20.942;2024-03-22T10:50:07;9.10;94.80
68924;DHT22;55961;52.156;20.942;2024-03-22T10:52:59;9.20;95.10
68924;DHT22;55961;52.156;20.942;2024-03-22T10:55:33;9.20;95.60
68924;DHT22;55961;52.156;20.942;2024-03-22T10:57:59;9.20;95.20
68924;DHT22;55961;52.156;20.942;2024-03-22T11:00:30;9.20;95.10
68924;DHT22;55961;52.156;20.942;2024-03-22T11:02:56;9.30;95.30
68924;DHT22;55961;52.156;20.942;2024-03-22T11:05:23;9.40;95.00
68924;DHT22;55961;52.156;20.942;2024-03-22T11:10:34;9.40;93.80
68924;DHT22;55961;52.156;20.942;2024-03-22T11:13:07;9.50;93.80
68924;DHT22;55961;52.156;20.942;2024-03-22T11:15:34;9.50;93.30
68924;DHT22;55961;52.156;20.942;2024-03-22T11:18:00;9.50;92.30
68924;DHT22;55961;52.156;20.942;2024-03-22T11:20:27;9.50;92.00
68924;DHT22;55961;52.156;20.942;2024-03-22T11:22:54;9.60;91.70
68924;DHT22;55961;52.156;20.942;2024-03-22T11:25:20;9.50;91.50
68924;DHT22;55961;52.156;20.942;2024-03-22T11:27:47;9.50;91.40
68924;DHT22;55961;52.156;20.942;2024-03-22T11:30:13;9.50;91.50
68924;DHT22;55961;52.156;20.942;2024-03-22T11:32:40;9.50;91.60
68924;DHT22;55961;52.156;20.942;2024-03-22T11:35:11;9.50;91.60
68924;DHT22;55961;52.156;20.942;2024-03-22T11:37:41;9.50;91.70
68924;DHT22;55961;52.156;20.942;2024-03-22T11:40:11;9.50;92.10
68924;DHT22;55961;52.156;20.942;2024-03-22T11:42:38;9.50;91.80
68924;DHT22;55961;52.156;20.942;2024-03-22T11:45:05;9.50;91.50
68924;DHT22;55961;52.156;20.942;2024-03-22T11:47:33;9.60;91.50
68924;DHT22;55961;52.156;20.942;2024-03-22T11:49:59;9.60;91.50
68924;DHT22;55961;52.156;20.942;2024-03-22T11:52:25;9.60;90.70
68924;DHT22;55961;52.156;20.942;2024-03-22T11:54:52;9.60;91.00
68924;DHT22;55961;52.156;20.942;2024-03-22T11:57:20;9.70;91.50
68924;DHT22;55961;52.156;20.942;2024-03-22T11:59:46;9.70;90.80
68924;DHT22;55961;52.156;20.942;2024-03-22T12:02:12;9.70;90.10
68924;DHT22;55961;52.156;20.942;2024-03-22T12:04:42;9.80;90.10
68924;DHT22;55961;52.156;20.942;2024-03-22T12:07:11;9.80;90.00
68924;DHT22;55961;52.156;20.942;2024-03-22T12:09:37;9.80;90.10
68924;DHT22;55961;52.156;20.942;2024-03-22T12:12:05;9.90;89.90
68924;DHT22;55961;52.156;20.942;2024-03-22T12:14:31;9.90;88.80
68924;DHT22;55961;52.156;20.942;2024-03-22T12:16:57;10.00;88.50
68924;DHT22;55961;52.156;20.942;2024-03-22T12:19:23;10.00;88.50
68924;DHT22;55961;52.156;20.942;2024-03-22T12:21:48;10.00;88.20
68924;DHT22;55961;52.156;20.942;2024-03-22T12:24:14;10.10;88.50
68924;DHT22;55961;52.156;20.942;2024-03-22T12:26:40;10.10;87.70
68924;DHT22;55961;52.156;20.942;2024-03-22T12:29:06;10.10;86.00
68924;DHT22;55961;52.156;20.942;2024-03-22T12:31:33;10.10;84.70
68924;DHT22;55961;52.156;20.942;2024-03-22T12:33:59;10.10;84.20
68924;DHT22;55961;52.156;20.942;2024-03-22T12:36:25;10.10;84.10
68924;DHT22;55961;52.156;20.942;2024-03-22T12:38:51;10.10;84.00
68924;DHT22;55961;52.156;20.942;2024-03-22T12:41:17;10.10;84.20
68924;DHT22;55961;52.156;20.942;2024-03-22T12:43:43;10.10;84.10
68924;DHT22;55961;52.156;20.942;2024-03-22T12:46:09;10.10;84.80
68924;DHT22;55961;52.156;20.942;2024-03-22T12:48:35;10.10;84.90
68924;DHT22;55961;52.156;20.942;2024-03-22T12:51:01;10.10;84.80
68924;DHT22;55961;52.156;20.942;2024-03-22T12:53:28;10.20;84.80
68924;DHT22;55961;52.156;20.942;2024-03-22T12:55:53;10.20;84.50
68924;DHT22;55961;52.156;20.942;2024-03-22T12:58:19;10.20;84.80
68924;DHT22;55961;52.156;20.942;2024-03-22T13:00:46;10.30;83.50
68924;DHT22;55961;52.156;20.942;2024-03-22T13:03:12;10.30;83.90
68924;DHT22;55961;52.156;20.942;2024-03-22T13:05:40;10.30;84.00
68924;DHT22;55961;52.156;20.942;2024-03-22T13:08:06;10.40;83.70
68924;DHT22;55961;52.156;20.942;2024-03-22T13:10:33;10.40;83.50
68924;DHT22;55961;52.156;20.942;2024-03-22T13:12:59;10.40;84.10
68924;DHT22;55961;52.156;20.942;2024-03-22T13:15:25;10.40;84.00
68924;DHT22;55961;52.156;20.942;2024-03-22T13:17:51;10.50;83.90
68924;DHT22;55961;52.156;20.942;2024-03-22T13:20:21;10.50;83.40
68924;DHT22;55961;52.156;20.942;2024-03-22T13:22:47;10.50;83.40
68924;DHT22;55961;52.156;20.942;2024-03-22T13:25:13;10.50;83.70
68924;DHT22;55961;52.156;20.942;2024-03-22T13:27:39;10.50;83.30
68924;DHT22;55961;52.156;20.942;2024-03-22T13:30:06;10.50;83.20
68924;DHT22;55961;52.156;20.942;2024-03-22T13:32:39;10.50;82.90
68924;DHT22;55961;52.156;20.942;2024-03-22T13:35:05;10.50;83.10
68924;DHT22;55961;52.156;20.942;2024-03-22T13:37:32;10.50;83.50
68924;DHT22;55961;52.156;20.942;2024-03-22T13:39:58;10.60;83.10
68924;DHT22;55961;52.156;20.942;2024-03-22T13:42:26;10.60;83.40
68924;DHT22;55961;52.156;20.942;2024-03-22T13:44:52;10.60;83.00
68924;DHT22;55961;52.156;20.942;2024-03-22T13:47:27;10.70;83.10
68924;DHT22;55961;52.156;20.942;2024-03-22T13:49:53;10.70;82.30
68924;DHT22;55961;52.156;20.942;2024-03-22T13:52:20;10.70;83.10
68924;DHT22;55961;52.156;20.942;2024-03-22T13:54:48;10.80;83.20
68924;DHT22;55961;52.156;20.942;2024-03-22T13:57:16;10.80;82.00
68924;DHT22;55961;52.156;20.942;2024-03-22T13:59:41;10.80;82.60
68924;DHT22;55961;52.156;20.942;2024-03-22T14:02:07;10.90;81.90
68924;DHT22;55961;52.156;20.942;2024-03-22T14:04:34;10.90;81.80
68924;DHT22;55961;52.156;20.942;2024-03-22T14:07:00;10.90;81.70
68924;DHT22;55961;52.156;20.942;2024-03-22T14:09:31;10.90;81.00
68924;DHT22;55961;52.156;20.942;2024-03-22T14:11:57;10.90;80.30
68924;DHT22;55961;52.156;20.942;2024-03-22T14:14:25;10.90;80.20
68924;DHT22;55961;52.156;20.942;2024-03-22T14:16:52;10.90;80.60
68924;DHT22;55961;52.156;20.942;2024-03-22T14:19:17;10.90;80.30
68924;DHT22;55961;52.156;20.942;2024-03-22T14:21:45;10.90;80.50
68924;DHT22;55961;52.156;20.942;2024-03-22T14:24:14;10.90;80.30
68924;DHT22;55961;52.156;20.942;2024-03-22T14:26:40;10.90;80.60
68924;DHT22;55961;52.156;20.942;2024-03-22T14:29:09;10.90;80.50
68924;DHT22;55961;52.156;20.942;2024-03-22T14:31:36;10.90;80.60
68924;DHT22;55961;52.156;20.942;2024-03-22T14:34:02;11.00;79.70
68924;DHT22;55961;52.156;20.942;2024-03-22T14:36:28;11.00;79.70
68924;DHT22;55961;52.156;20.942;2024-03-22T14:38:54;10.90;79.20
68924;DHT22;55961;52.156;20.942;2024-03-22T14:41:20;11.00;79.60
68924;DHT22;55961;52.156;20.942;2024-03-22T14:43:46;10.90;80.00
68924;DHT22;55961;52.156;20.942;2024-03-22T14:46:12;10.90;80.00
68924;DHT22;55961;52.156;20.942;2024-03-22T14:48:38;10.90;80.00
68924;DHT22;55961;52.156;20.942;2024-03-22T14:51:04;10.90;80.40
68924;DHT22;55961;52.156;20.942;2024-03-22T14:53:30;10.90;79.60
68924;DHT22;55961;52.156;20.942;2024-03-22T14:55:59;10.90;79.20
68924;DHT22;55961;52.156;20.942;2024-03-22T14:58:28;10.90;79.40
68924;DHT22;55961;52.156;20.942;2024-03-22T15:00:55;10.80;79.10
68924;DHT22;55961;52.156;20.942;2024-03-22T15:03:21;10.80;78.90
68924;DHT22;55961;52.156;20.942;2024-03-22T15:05:52;10.80;79.10
68924;DHT22;55961;52.156;20.942;2024-03-22T15:08:19;10.80;78.80
68924;DHT22;55961;52.156;20.942;2024-03-22T15:10:46;10.80;78.40
68924;DHT22;55961;52.156;20.942;2024-03-22T15:13:13;10.80;79.00
68924;DHT22;55961;52.156;20.942;2024-03-22T15:15:40;10.80;78.90
68924;DHT22;55961;52.156;20.942;2024-03-22T15:18:06;10.70;79.20
68924;DHT22;55961;52.156;20.942;2024-03-22T15:20:33;10.70;78.80
68924;DHT22;55961;52.156;20.942;2024-03-22T15:22:59;10.70;79.90
68924;DHT22;55961;52.156;20.942;2024-03-22T15:25:25;10.60;80.10
68924;DHT22;55961;52.156;20.942;2024-03-22T15:27:51;10.60;80.50